createdAt,value
2022-09-03T00:01:26.609Z,1
2022-09-03T00:04:53.059Z,0
2022-09-03T00:06:36.441Z,0
2022-09-03T00:08:19.941Z,1
2022-09-03T00:10:03.277Z,1
2022-09-03T00:11:46.656Z,1
2022-09-03T00:13:30.094Z,1
2022-09-03T00:15:13.453Z,1
2022-09-03T00:16:56.833Z,1
2022-09-03T00:20:23.308Z,1
2022-09-03T00:22:06.704Z,1
2022-09-03T00:23:50.139Z,1
2022-09-03T00:25:33.494Z,1
2022-09-03T00:27:16.892Z,0
2022-09-03T00:29:00.299Z,1
2022-09-03T00:30:43.693Z,1
2022-09-03T00:32:27.081Z,1
2022-09-03T00:35:53.561Z,1
2022-09-03T00:37:36.945Z,1
2022-09-03T00:39:20.342Z,1
2022-09-03T00:41:03.742Z,0
2022-09-03T00:42:47.138Z,0
2022-09-03T00:44:30.537Z,1
2022-09-03T00:46:13.937Z,1
2022-09-03T00:47:57.330Z,1
2022-09-03T00:51:23.803Z,0
2022-09-03T00:53:07.187Z,1
2022-09-03T00:54:50.615Z,1
2022-09-03T00:56:34.004Z,1
2022-09-03T00:58:17.403Z,1
2022-09-03T01:00:00.792Z,1
2022-09-03T01:01:44.183Z,1
2022-09-03T01:03:27.591Z,1
2022-09-03T01:08:36.826Z,1
2022-09-03T01:10:20.217Z,1
2022-09-03T01:12:03.604Z,1
2022-09-03T01:13:47.015Z,1
2022-09-03T01:15:30.411Z,1
2022-09-03T01:17:13.853Z,1
2022-09-03T01:18:57.233Z,1
2022-09-03T01:20:40.628Z,1
2022-09-03T01:25:49.857Z,0
2022-09-03T01:27:33.259Z,1
2022-09-03T01:29:16.663Z,1
2022-09-03T01:31:00.035Z,1
2022-09-03T01:32:43.443Z,1
2022-09-03T01:34:26.846Z,1
2022-09-03T01:36:10.230Z,0
2022-09-03T01:37:53.638Z,1
2022-09-03T01:41:20.104Z,1
2022-09-03T01:43:03.510Z,0
2022-09-03T01:44:46.890Z,1
2022-09-03T01:46:30.287Z,1
2022-09-03T01:48:13.708Z,0
2022-09-03T01:49:57.084Z,1
2022-09-03T01:51:40.520Z,1
2022-09-03T01:53:23.868Z,1
2022-09-03T01:55:07.576Z,1
2022-09-03T01:56:50.968Z,1
2022-09-03T01:58:34.379Z,1
2022-09-03T02:00:17.768Z,1
2022-09-03T02:02:01.174Z,0
2022-09-03T02:03:44.606Z,1
2022-09-03T02:05:27.950Z,1
2022-09-03T02:07:11.362Z,1
2022-09-03T02:10:37.830Z,1
2022-09-03T02:12:21.223Z,1
2022-09-03T02:14:04.625Z,1
2022-09-03T02:15:48.027Z,1
2022-09-03T02:17:31.418Z,1
2022-09-03T02:19:14.810Z,1
2022-09-03T02:20:58.203Z,1
2022-09-03T02:22:41.634Z,1
2022-09-03T02:24:25.303Z,1
2022-09-03T02:26:08.700Z,1
2022-09-03T02:27:52.125Z,1
2022-09-03T02:29:35.534Z,0
2022-09-03T02:31:18.913Z,1
2022-09-03T02:33:02.291Z,1
2022-09-03T02:34:45.686Z,1
2022-09-03T02:36:29.079Z,1
2022-09-03T02:39:55.580Z,1
2022-09-03T02:41:38.987Z,0
2022-09-03T02:43:22.360Z,1
2022-09-03T02:45:05.742Z,1
2022-09-03T02:46:49.147Z,1
2022-09-03T02:48:32.555Z,1
2022-09-03T02:50:15.954Z,1
2022-09-03T02:51:59.345Z,0
2022-09-03T02:55:25.823Z,1
2022-09-03T02:57:09.213Z,0
2022-09-03T02:58:52.598Z,1
2022-09-03T03:00:35.999Z,2
2022-09-03T03:02:19.397Z,1
2022-09-03T03:04:02.806Z,0
2022-09-03T03:05:46.208Z,0
2022-09-03T03:07:29.598Z,1
2022-09-03T03:09:13.295Z,1
2022-09-03T03:10:56.687Z,1
2022-09-03T03:12:40.091Z,1
2022-09-03T03:14:23.484Z,1
2022-09-03T03:16:06.877Z,1
2022-09-03T03:17:50.273Z,1
2022-09-03T03:19:33.679Z,1
2022-09-03T03:21:17.101Z,1
2022-09-03T03:24:43.544Z,1
2022-09-03T03:26:26.931Z,1
2022-09-03T03:28:10.342Z,1
2022-09-03T03:29:53.748Z,0
2022-09-03T03:31:37.134Z,1
2022-09-03T03:33:20.523Z,1
2022-09-03T03:35:03.924Z,0
2022-09-03T03:36:47.336Z,1
2022-09-03T03:38:31.040Z,1
2022-09-03T03:40:14.417Z,1
2022-09-03T03:41:57.811Z,1
2022-09-03T03:43:41.227Z,1
2022-09-03T03:45:24.613Z,1
2022-09-03T03:47:08.015Z,1
2022-09-03T03:48:51.395Z,1
2022-09-03T03:50:34.831Z,1
2022-09-03T03:54:01.283Z,1
2022-09-03T03:55:44.685Z,1
2022-09-03T03:57:28.076Z,1
2022-09-03T03:59:11.469Z,1
2022-09-03T04:00:54.854Z,1
2022-09-03T04:02:38.307Z,1
2022-09-03T04:04:21.661Z,1
2022-09-03T04:06:05.054Z,1
2022-09-03T04:07:48.761Z,1
2022-09-03T04:09:32.153Z,2
2022-09-03T04:11:15.559Z,1
2022-09-03T04:12:58.956Z,1
2022-09-03T04:14:42.402Z,1
2022-09-03T04:16:25.744Z,1
2022-09-03T04:18:09.137Z,1
2022-09-03T04:19:52.520Z,1
2022-09-03T04:23:19.010Z,1
2022-09-03T04:25:02.408Z,2
2022-09-03T04:26:45.820Z,2
2022-09-03T04:28:29.196Z,2
2022-09-03T04:30:12.644Z,1
2022-09-03T04:31:55.979Z,1
2022-09-03T04:33:39.391Z,3
2022-09-03T04:35:22.794Z,3
2022-09-03T04:38:49.280Z,3
2022-09-03T04:40:32.656Z,3
2022-09-03T04:42:16.077Z,3
2022-09-03T04:43:59.449Z,3
2022-09-03T04:45:42.850Z,3
2022-09-03T04:47:26.237Z,6
2022-09-03T04:49:09.641Z,6
2022-09-03T04:50:53.040Z,8
2022-09-03T04:56:02.273Z,18
2022-09-03T04:57:45.679Z,20
2022-09-03T04:59:29.068Z,22
2022-09-03T05:01:12.475Z,24
2022-09-03T05:02:55.859Z,24
2022-09-03T05:04:39.275Z,27
2022-09-03T05:06:22.660Z,29
2022-09-03T05:08:06.056Z,25
2022-09-03T05:13:15.296Z,28
2022-09-03T05:14:58.688Z,29
2022-09-03T05:16:42.100Z,28
2022-09-03T05:18:25.482Z,27
2022-09-03T05:20:08.897Z,25
2022-09-03T05:21:52.534Z,24
2022-09-03T05:23:35.688Z,25
2022-09-03T05:25:19.084Z,24
2022-09-03T05:28:45.555Z,17
2022-09-03T05:30:28.946Z,18
2022-09-03T05:32:12.346Z,20
2022-09-03T05:33:55.746Z,24
2022-09-03T05:35:39.134Z,28
2022-09-03T05:37:22.530Z,33
2022-09-03T05:39:05.926Z,39
2022-09-03T05:40:49.323Z,44
2022-09-03T05:45:58.571Z,58
2022-09-03T05:47:41.973Z,60
2022-09-03T05:49:25.385Z,64
2022-09-03T05:51:08.760Z,62
2022-09-03T05:52:52.153Z,55
2022-09-03T05:54:35.598Z,48
2022-09-03T05:56:18.956Z,44
2022-09-03T05:58:02.343Z,44
2022-09-03T06:01:28.834Z,53
2022-09-03T06:03:12.251Z,56
2022-09-03T06:04:55.621Z,57
2022-09-03T06:06:39.018Z,57
2022-09-03T06:08:22.401Z,59
2022-09-03T06:10:05.807Z,61
2022-09-03T06:11:49.204Z,61
2022-09-03T06:13:32.596Z,62
2022-09-03T06:16:59.091Z,63
2022-09-03T06:18:42.484Z,62
2022-09-03T06:20:25.863Z,61
2022-09-03T06:22:09.269Z,60
2022-09-03T06:23:52.663Z,59
2022-09-03T06:25:36.088Z,58
2022-09-03T06:27:19.457Z,56
2022-09-03T06:29:02.859Z,55
2022-09-03T06:32:29.336Z,50
2022-09-03T06:34:12.714Z,46
2022-09-03T06:35:56.126Z,45
2022-09-03T06:37:39.510Z,44
2022-09-03T06:39:22.923Z,44
2022-09-03T06:41:06.314Z,43
2022-09-03T06:42:49.715Z,46
2022-09-03T06:44:33.107Z,48
2022-09-03T06:47:59.572Z,48
2022-09-03T06:49:42.983Z,52
2022-09-03T06:51:26.374Z,57
2022-09-03T06:53:09.781Z,66
2022-09-03T06:54:53.154Z,79
2022-09-03T06:56:36.568Z,89
2022-09-03T06:58:19.953Z,99
2022-09-03T07:00:03.381Z,319
2022-09-03T07:03:29.827Z,328
2022-09-03T07:05:13.219Z,316
2022-09-03T07:06:56.619Z,311
2022-09-03T07:08:40.023Z,295
2022-09-03T07:10:23.415Z,270
2022-09-03T07:12:06.821Z,248
2022-09-03T07:13:50.204Z,251
2022-09-03T07:15:33.614Z,258
2022-09-03T07:20:42.852Z,322
2022-09-03T07:22:26.260Z,340
2022-09-03T07:24:09.646Z,347
2022-09-03T07:25:53.041Z,342
2022-09-03T07:27:36.432Z,343
2022-09-03T07:29:19.832Z,330
2022-09-03T07:31:03.222Z,353
2022-09-03T07:32:46.630Z,367
2022-09-03T07:36:13.115Z,543
2022-09-03T07:37:56.496Z,487
2022-09-03T07:39:39.888Z,411
2022-09-03T07:41:23.293Z,410
2022-09-03T07:43:06.690Z,387
2022-09-03T07:44:50.088Z,445
2022-09-03T07:46:33.475Z,471
2022-09-03T07:48:16.880Z,478
2022-09-03T07:51:43.347Z,548
2022-09-03T07:53:26.758Z,592
2022-09-03T07:55:10.205Z,642
2022-09-03T07:56:53.563Z,685
2022-09-03T07:58:36.953Z,695
2022-09-03T08:00:20.332Z,702
2022-09-03T08:02:03.732Z,692
2022-09-03T08:03:47.139Z,689
2022-09-03T08:07:13.610Z,654
2022-09-03T08:08:57.010Z,654
2022-09-03T08:10:40.413Z,641
2022-09-03T08:12:23.795Z,623
2022-09-03T08:14:07.214Z,633
2022-09-03T08:15:50.601Z,693
2022-09-03T08:17:33.982Z,652
2022-09-03T08:19:17.402Z,629
2022-09-03T08:22:43.873Z,661
2022-09-03T08:24:27.263Z,697
2022-09-03T08:26:10.657Z,744
2022-09-03T08:27:54.056Z,781
2022-09-03T08:29:37.466Z,782
2022-09-03T08:31:20.848Z,782
2022-09-03T08:33:04.237Z,781
2022-09-03T08:34:47.715Z,782
2022-09-03T08:38:14.149Z,751
2022-09-03T08:39:57.512Z,711
2022-09-03T08:41:40.915Z,743
2022-09-03T08:43:24.305Z,745
2022-09-03T08:45:07.706Z,692
2022-09-03T08:46:51.091Z,665
2022-09-03T08:48:34.498Z,616
2022-09-03T08:50:17.891Z,617
2022-09-03T08:53:44.361Z,496
2022-09-03T08:55:27.759Z,508
2022-09-03T08:57:11.150Z,517
2022-09-03T08:58:54.545Z,604
2022-09-03T09:00:37.947Z,781
2022-09-03T09:02:21.362Z,547
2022-09-03T09:04:04.742Z,782
2022-09-03T09:09:14.014Z,782
2022-09-03T09:10:57.390Z,781
2022-09-03T09:12:40.789Z,781
2022-09-03T09:14:24.193Z,782
2022-09-03T09:16:07.578Z,781
2022-09-03T09:17:50.973Z,782
2022-09-03T09:19:34.375Z,781
2022-09-03T09:21:17.766Z,771
2022-09-03T09:23:01.467Z,781
2022-09-03T09:24:44.864Z,782
2022-09-03T09:26:28.257Z,782
2022-09-03T09:28:11.663Z,782
2022-09-03T09:29:55.070Z,782
2022-09-03T09:31:38.449Z,781
2022-09-03T09:36:16.954Z,781
2022-09-03T09:38:00.338Z,782
2022-09-03T09:43:09.612Z,782
2022-09-03T09:44:53.036Z,781
2022-09-03T09:46:36.377Z,782
2022-09-03T09:48:19.778Z,781
2022-09-03T09:50:03.214Z,781
2022-09-03T09:51:46.575Z,781
2022-09-03T09:53:29.963Z,782
2022-09-03T09:55:13.345Z,703
2022-09-03T09:58:39.821Z,675
2022-09-03T10:00:23.228Z,701
2022-09-03T10:02:06.610Z,771
2022-09-03T10:03:50.010Z,780
2022-09-03T10:05:33.414Z,781
2022-09-03T10:07:16.808Z,781
2022-09-03T10:09:00.200Z,782
2022-09-03T10:10:43.617Z,781
2022-09-03T10:14:10.107Z,781
2022-09-03T10:15:53.468Z,781
2022-09-03T10:17:36.889Z,782
2022-09-03T10:19:20.278Z,782
2022-09-03T10:21:03.654Z,781
2022-09-03T10:22:47.082Z,782
2022-09-03T10:24:30.452Z,781
2022-09-03T10:26:13.904Z,781
2022-09-03T10:27:57.249Z,772
2022-09-03T10:29:40.938Z,782
2022-09-03T10:31:24.341Z,781
2022-09-03T10:33:07.734Z,782
2022-09-03T10:34:51.147Z,781
2022-09-03T10:36:35.076Z,781
2022-09-03T10:38:17.915Z,781
2022-09-03T10:40:01.329Z,781
2022-09-03T10:41:44.732Z,781
2022-09-03T10:45:11.196Z,782
2022-09-03T10:46:54.573Z,782
2022-09-03T10:48:37.977Z,781
2022-09-03T10:50:21.388Z,781
2022-09-03T10:52:04.800Z,782
2022-09-03T10:53:48.170Z,781
2022-09-03T10:55:31.562Z,782
2022-09-03T10:57:14.955Z,772
2022-09-03T10:58:58.665Z,781
2022-09-03T11:00:42.057Z,782
2022-09-03T11:02:25.451Z,782
2022-09-03T11:04:08.859Z,783
2022-09-03T11:05:52.249Z,763
2022-09-03T11:07:35.646Z,710
2022-09-03T11:09:19.062Z,699
2022-09-03T11:11:02.467Z,731
2022-09-03T11:14:28.915Z,781
2022-09-03T11:16:12.306Z,782
2022-09-03T11:17:55.701Z,782
2022-09-03T11:19:39.102Z,782
2022-09-03T11:21:22.486Z,782
2022-09-03T11:23:05.929Z,782
2022-09-03T11:24:49.286Z,782
2022-09-03T11:26:32.700Z,782
2022-09-03T11:29:59.171Z,783
2022-09-03T11:31:42.563Z,782
2022-09-03T11:33:25.955Z,782
2022-09-03T11:35:09.348Z,782
2022-09-03T11:36:52.733Z,782
2022-09-03T11:38:36.171Z,782
2022-09-03T11:40:19.530Z,782
2022-09-03T11:42:02.931Z,781
2022-09-03T11:45:29.396Z,768
2022-09-03T11:47:12.800Z,702
2022-09-03T11:48:56.188Z,637
2022-09-03T11:50:39.601Z,590
2022-09-03T11:52:23.003Z,574
2022-09-03T11:54:06.424Z,558
2022-09-03T11:55:49.777Z,543
2022-09-03T11:57:33.187Z,535
2022-09-03T12:00:59.642Z,539
2022-09-03T12:02:43.076Z,538
2022-09-03T12:04:26.443Z,526
2022-09-03T12:06:09.842Z,482
2022-09-03T12:07:53.272Z,464
2022-09-03T12:09:36.630Z,438
2022-09-03T12:11:20.047Z,414
2022-09-03T12:13:03.434Z,378
2022-09-03T12:16:29.888Z,310
2022-09-03T12:18:13.293Z,276
2022-09-03T12:19:56.720Z,251
2022-09-03T12:21:40.069Z,222
2022-09-03T12:23:23.537Z,199
2022-09-03T12:25:06.871Z,178
2022-09-03T12:26:50.265Z,162
2022-09-03T12:28:33.661Z,152
2022-09-03T12:32:00.126Z,129
2022-09-03T12:33:43.531Z,117
2022-09-03T12:35:26.926Z,105
2022-09-03T12:37:10.332Z,104
2022-09-03T12:38:53.705Z,96
2022-09-03T12:40:37.125Z,90
2022-09-03T12:42:20.518Z,85
2022-09-03T12:44:03.919Z,75
2022-09-03T12:45:47.609Z,73
2022-09-03T12:47:31.004Z,72
2022-09-03T12:49:14.412Z,67
2022-09-03T12:50:57.838Z,66
2022-09-03T12:52:41.201Z,63
2022-09-03T12:54:24.599Z,65
2022-09-03T12:56:07.978Z,66
2022-09-03T12:57:51.385Z,67
2022-09-03T13:03:00.617Z,72
2022-09-03T13:04:44.039Z,73
2022-09-03T13:06:27.462Z,74
2022-09-03T13:08:10.846Z,76
2022-09-03T13:09:54.221Z,77
2022-09-03T13:11:37.618Z,80
2022-09-03T13:13:21.004Z,83
2022-09-03T13:15:04.414Z,85
2022-09-03T13:18:30.863Z,98
2022-09-03T13:20:14.264Z,106
2022-09-03T13:21:57.673Z,117
2022-09-03T13:23:41.061Z,129
2022-09-03T13:25:24.456Z,142
2022-09-03T13:27:07.881Z,156
2022-09-03T13:28:51.254Z,169
2022-09-03T13:30:34.649Z,185
2022-09-03T13:35:43.873Z,222
2022-09-03T13:37:27.270Z,237
2022-09-03T13:39:10.679Z,247
2022-09-03T13:40:54.078Z,261
2022-09-03T13:42:37.470Z,280
2022-09-03T13:44:20.859Z,305
2022-09-03T13:46:04.249Z,340
2022-09-03T13:47:47.665Z,386
2022-09-03T13:51:14.124Z,543
2022-09-03T13:52:57.537Z,654
2022-09-03T13:54:40.925Z,768
2022-09-03T13:56:24.311Z,782
2022-09-03T13:58:07.704Z,782
2022-09-03T13:59:51.111Z,782
2022-09-03T14:01:34.521Z,781
2022-09-03T14:03:17.898Z,782
2022-09-03T14:08:27.158Z,782
2022-09-03T14:10:10.526Z,781
2022-09-03T14:11:53.921Z,782
2022-09-03T14:13:37.325Z,782
2022-09-03T14:15:20.726Z,781
2022-09-03T14:17:04.128Z,781
2022-09-03T14:18:47.541Z,782
2022-09-03T14:20:30.901Z,781
2022-09-03T14:23:57.387Z,782
2022-09-03T14:25:40.786Z,659
2022-09-03T14:27:24.165Z,781
2022-09-03T14:29:07.574Z,782
2022-09-03T14:30:50.985Z,782
2022-09-03T14:32:34.373Z,782
2022-09-03T14:34:17.746Z,670
2022-09-03T14:36:01.167Z,781
2022-09-03T14:41:11.029Z,626
2022-09-03T14:42:54.429Z,627
2022-09-03T14:44:37.824Z,679
2022-09-03T14:46:21.216Z,782
2022-09-03T14:48:04.618Z,782
2022-09-03T14:49:48.007Z,782
2022-09-03T14:51:31.402Z,668
2022-09-03T14:54:57.875Z,782
2022-09-03T14:56:41.297Z,781
2022-09-03T14:58:24.667Z,615
2022-09-03T15:00:08.070Z,641
2022-09-03T15:01:51.501Z,740
2022-09-03T15:03:34.848Z,689
2022-09-03T15:05:18.246Z,400
2022-09-03T15:07:01.637Z,376
2022-09-03T15:10:28.102Z,407
2022-09-03T15:12:11.553Z,506
2022-09-03T15:13:54.925Z,387
2022-09-03T15:15:38.300Z,396
2022-09-03T15:17:21.695Z,413
2022-09-03T15:19:05.102Z,429
2022-09-03T15:20:48.532Z,442
2022-09-03T15:22:31.897Z,456
2022-09-03T15:24:15.593Z,473
2022-09-03T15:25:59.040Z,498
2022-09-03T15:27:42.377Z,532
2022-09-03T15:29:25.805Z,571
2022-09-03T15:31:09.215Z,624
2022-09-03T15:32:52.581Z,621
2022-09-03T15:34:35.978Z,670
2022-09-03T15:36:19.373Z,782
2022-09-03T15:41:28.599Z,781
2022-09-03T15:43:12.012Z,781
2022-09-03T15:44:55.395Z,781
2022-09-03T15:46:38.790Z,782
2022-09-03T15:48:22.187Z,782
2022-09-03T15:50:05.587Z,759
2022-09-03T15:51:49.027Z,602
2022-09-03T15:53:32.384Z,575
2022-09-03T15:55:16.071Z,558
2022-09-03T15:56:59.488Z,585
2022-09-03T15:58:42.884Z,781
2022-09-03T16:00:26.289Z,781
2022-09-03T16:02:09.674Z,782
2022-09-03T16:03:53.056Z,782
2022-09-03T16:05:36.462Z,782
2022-09-03T16:07:19.840Z,782
2022-09-03T16:10:46.337Z,782
2022-09-03T16:12:29.713Z,782
2022-09-03T16:14:13.178Z,782
2022-09-03T16:15:56.537Z,782
2022-09-03T16:17:39.971Z,782
2022-09-03T16:19:23.319Z,781
2022-09-03T16:21:06.695Z,782
2022-09-03T16:22:50.099Z,782
2022-09-03T16:26:16.568Z,781
2022-09-03T16:27:59.967Z,545
2022-09-03T16:29:43.400Z,719
2022-09-03T16:31:26.806Z,581
2022-09-03T16:33:10.137Z,612
2022-09-03T16:34:53.556Z,666
2022-09-03T16:36:36.954Z,578
2022-09-03T16:38:20.353Z,522
2022-09-03T16:41:46.830Z,394
2022-09-03T16:43:30.226Z,312
2022-09-03T16:45:13.591Z,303
2022-09-03T16:46:57.003Z,289
2022-09-03T16:48:40.403Z,284
2022-09-03T16:50:23.785Z,286
2022-09-03T16:52:07.233Z,291
2022-09-03T16:53:50.581Z,323
2022-09-03T16:57:17.105Z,781
2022-09-03T16:59:00.443Z,781
2022-09-03T17:00:43.849Z,721
2022-09-03T17:02:27.269Z,442
2022-09-03T17:04:10.643Z,358
2022-09-03T17:05:54.052Z,352
2022-09-03T17:07:37.431Z,355
2022-09-03T17:09:20.841Z,348
2022-09-03T17:12:47.299Z,317
2022-09-03T17:14:30.694Z,303
2022-09-03T17:16:14.102Z,289
2022-09-03T17:17:57.482Z,285
2022-09-03T17:19:40.881Z,287
2022-09-03T17:21:24.307Z,283
2022-09-03T17:23:07.707Z,281
2022-09-03T17:24:51.079Z,283
2022-09-03T17:28:17.547Z,290
2022-09-03T17:30:00.936Z,298
2022-09-03T17:31:44.367Z,290
2022-09-03T17:33:27.726Z,289
2022-09-03T17:35:11.118Z,274
2022-09-03T17:36:54.533Z,248
2022-09-03T17:38:37.921Z,220
2022-09-03T17:40:21.318Z,193
2022-09-03T17:43:47.780Z,144
2022-09-03T17:45:31.176Z,119
2022-09-03T17:47:14.597Z,101
2022-09-03T17:48:58.012Z,88
2022-09-03T17:50:41.424Z,76
2022-09-03T17:52:24.771Z,63
2022-09-03T17:54:08.173Z,52
2022-09-03T17:55:51.557Z,41
2022-09-03T17:57:35.279Z,31
2022-09-03T17:59:18.657Z,26
2022-09-03T18:01:02.050Z,18
2022-09-03T18:02:45.455Z,12
2022-09-03T18:04:28.857Z,8
2022-09-03T18:06:12.241Z,5
2022-09-03T18:07:55.639Z,5
2022-09-03T18:09:39.037Z,4
2022-09-03T18:13:05.506Z,10
2022-09-03T18:14:48.960Z,10
2022-09-03T18:16:32.308Z,9
2022-09-03T18:18:15.699Z,8
2022-09-03T18:19:59.116Z,8
2022-09-03T18:21:42.510Z,9
2022-09-03T18:23:25.895Z,10
2022-09-03T18:25:09.289Z,9
2022-09-03T18:30:18.557Z,9
2022-09-03T18:32:01.946Z,9
2022-09-03T18:33:45.315Z,9
2022-09-03T18:35:28.701Z,10
2022-09-03T18:37:12.139Z,10
2022-09-03T18:38:55.511Z,9
2022-09-03T18:40:38.896Z,10
2022-09-03T18:42:22.279Z,9
2022-09-03T18:45:48.762Z,9
2022-09-03T18:47:32.166Z,9
2022-09-03T18:49:15.586Z,10
2022-09-03T18:50:58.946Z,10
2022-09-03T18:52:42.381Z,9
2022-09-03T18:54:25.743Z,9
2022-09-03T18:56:09.130Z,10
2022-09-03T18:57:52.532Z,9
2022-09-03T18:59:36.245Z,9
2022-09-03T19:01:19.623Z,9
2022-09-03T19:03:03.039Z,9
2022-09-03T19:04:46.418Z,9
2022-09-03T19:06:29.815Z,9
2022-09-03T19:09:56.613Z,9
2022-09-03T19:11:40.015Z,9
2022-09-03T19:16:49.258Z,9
2022-09-03T19:18:32.650Z,10
2022-09-03T19:20:16.047Z,9
2022-09-03T19:21:59.440Z,10
2022-09-03T19:23:42.863Z,9
2022-09-03T19:25:26.234Z,9
2022-09-03T19:27:09.643Z,9
2022-09-03T19:32:18.864Z,10
2022-09-03T19:34:02.276Z,10
2022-09-03T19:35:45.671Z,10
2022-09-03T19:37:29.049Z,9
2022-09-03T19:39:12.449Z,9
2022-09-03T19:40:55.866Z,9
2022-09-03T19:42:39.231Z,10
2022-09-03T19:44:22.637Z,9
2022-09-03T19:46:06.336Z,9
2022-09-03T19:47:49.727Z,9
2022-09-03T19:49:33.137Z,9
2022-09-03T19:51:16.517Z,10
2022-09-03T19:52:59.927Z,9
2022-09-03T19:54:43.314Z,9
2022-09-03T19:56:26.726Z,9
2022-09-03T19:58:10.139Z,9
2022-09-03T20:01:36.588Z,9
2022-09-03T20:03:20.005Z,9
2022-09-03T20:05:03.369Z,9
2022-09-03T20:06:46.777Z,9
2022-09-03T20:08:30.167Z,9
2022-09-03T20:10:13.652Z,9
2022-09-03T20:11:56.967Z,9
2022-09-03T20:13:40.350Z,9
2022-09-03T20:17:06.826Z,9
2022-09-03T20:18:50.247Z,10
2022-09-03T20:20:33.643Z,9
2022-09-03T20:22:17.017Z,10
2022-09-03T20:24:00.413Z,9
2022-09-03T20:25:43.806Z,11
2022-09-03T20:27:27.223Z,10
2022-09-03T20:29:10.592Z,9
2022-09-03T20:30:54.304Z,9
2022-09-03T20:32:37.734Z,9
2022-09-03T20:34:21.106Z,10
2022-09-03T20:36:04.501Z,9
2022-09-03T20:37:47.888Z,9
2022-09-03T20:39:31.278Z,9
2022-09-03T20:41:14.690Z,9
2022-09-03T20:42:58.082Z,9
2022-09-03T20:44:41.789Z,10
2022-09-03T20:46:25.182Z,10
2022-09-03T20:48:08.580Z,9
2022-09-03T20:49:51.956Z,9
2022-09-03T20:51:35.360Z,9
2022-09-03T20:53:18.755Z,10
2022-09-03T20:55:02.162Z,10
2022-09-03T20:56:45.549Z,10
2022-09-03T21:00:12.032Z,9
2022-09-03T21:01:55.433Z,9
2022-09-03T21:03:38.818Z,10
2022-09-03T21:05:22.243Z,10
2022-09-03T21:07:05.599Z,10
2022-09-03T21:08:49.011Z,10
2022-09-03T21:10:32.408Z,9
2022-09-03T21:12:15.793Z,10
2022-09-03T21:13:59.545Z,8
2022-09-03T21:15:42.908Z,10
2022-09-03T21:17:26.296Z,9
2022-09-03T21:19:09.682Z,10
2022-09-03T21:20:53.093Z,9
2022-09-03T21:22:36.490Z,9
2022-09-03T21:24:19.867Z,9
2022-09-03T21:26:03.258Z,6
2022-09-03T21:29:29.743Z,9
2022-09-03T21:31:13.174Z,9
2022-09-03T21:32:56.538Z,9
2022-09-03T21:34:39.924Z,10
2022-09-03T21:36:23.334Z,9
2022-09-03T21:38:06.726Z,7
2022-09-03T21:39:50.119Z,2
2022-09-03T21:41:33.551Z,2
2022-09-03T21:44:59.999Z,1
2022-09-03T21:46:43.409Z,1
2022-09-03T21:48:26.804Z,1
2022-09-03T21:50:10.181Z,1
2022-09-03T21:51:53.572Z,1
2022-09-03T21:53:36.969Z,1
2022-09-03T21:55:20.375Z,1
2022-09-03T21:57:03.788Z,1
2022-09-03T22:00:30.243Z,1
2022-09-03T22:02:13.626Z,0
2022-09-03T22:03:57.035Z,1
2022-09-03T22:05:40.413Z,1
2022-09-03T22:07:23.845Z,1
2022-09-03T22:09:07.263Z,0
2022-09-03T22:10:50.621Z,1
2022-09-03T22:12:34.009Z,1
2022-09-03T22:16:00.488Z,1
2022-09-03T22:17:43.888Z,1
2022-09-03T22:19:27.276Z,1
2022-09-03T22:21:10.669Z,1
2022-09-03T22:22:54.060Z,1
2022-09-03T22:24:37.456Z,0
2022-09-03T22:26:20.882Z,1
2022-09-03T22:28:04.240Z,1
2022-09-03T22:33:13.549Z,1
2022-09-03T22:34:56.883Z,0
2022-09-03T22:36:40.285Z,1
2022-09-03T22:38:23.681Z,0
2022-09-03T22:40:07.068Z,1
2022-09-03T22:41:50.483Z,1
2022-09-03T22:43:33.878Z,1
2022-09-03T22:45:17.275Z,1
2022-09-03T22:50:26.517Z,1
2022-09-03T22:52:09.889Z,1
2022-09-03T22:53:53.298Z,1
2022-09-03T22:55:36.687Z,1
2022-09-03T22:57:20.093Z,1
2022-09-03T22:59:03.490Z,1
2022-09-03T23:00:46.892Z,1
2022-09-03T23:02:30.279Z,1
2022-09-03T23:05:56.756Z,1
2022-09-03T23:07:40.144Z,1
2022-09-03T23:09:23.538Z,1
2022-09-03T23:11:06.947Z,2
2022-09-03T23:12:50.347Z,0
2022-09-03T23:14:33.756Z,1
2022-09-03T23:16:17.136Z,1
2022-09-03T23:18:00.534Z,1
2022-09-03T23:21:26.999Z,0
2022-09-03T23:23:10.393Z,0
2022-09-03T23:24:53.784Z,0
2022-09-03T23:26:37.195Z,1
2022-09-03T23:28:20.625Z,1
2022-09-03T23:30:03.973Z,1
2022-09-03T23:31:47.384Z,1
2022-09-03T23:33:30.774Z,0
2022-09-03T23:35:14.171Z,1
2022-09-03T23:36:57.874Z,1
2022-09-03T23:38:41.271Z,2
2022-09-03T23:40:24.655Z,2
2022-09-03T23:42:08.065Z,1
2022-09-03T23:43:51.445Z,1
2022-09-03T23:45:34.863Z,1
2022-09-03T23:47:18.252Z,1
2022-09-03T23:49:01.653Z,1
2022-09-03T23:54:10.882Z,1
2022-09-03T23:55:54.276Z,2
2022-09-03T23:57:37.681Z,0
2022-09-03T23:59:21.074Z,2
